Leibnitz, Austria
Current Conditions -  °F | °C
As of 3:50 PM on Wednesday 22 Oct 2014 (Local Time) from LOWG Reporting Station
Broken Clouds Broken Clouds  
Wind Chill: 50°   Ceiling: 27000
Heat Index: 50°   Visibility: 6mi
Dew Point: 32°   Wind: 10mph
Humidity: 50%   Direction: 330°NNW
Pressure: 29.74"   Gusts: NA
Location:  46.78°N, 15.56°E
Report Text: LOWG 221350Z 33009KT 280V360 9999 FEW050 SCT065 BKN270 10/M00 Q1007 NOSIG
Loading
Personal Weather Stations






























Interactive Weather Map
Tropical Storm Tracking
New forecast layout! Learn more

10-Day Weather Forecast

Advertisements
Track Severe Weather on mobile